Time,TemperatureF,DewpointF,PressureIn,WindDirection,WindDirectionDegrees,WindSpeedMPH,WindSpeedGustMPH,Humidity,HourlyPrecipIn,Conditions,Clouds,dailyrainin,SolarRadiationWatts/m^2,SoftwareType,DateUTC
2013-03-04 00:00:00,27.0,15.0,-100.00,North,0,1.0,2.0,58,-99.99,,,-99.99,-0.200000,,2013-03-04 08:00:00,
2013-03-04 00:52:00,27.0,15.0,-100.00,North,0,1.0,2.0,58,-99.99,,,-99.99,-0.200000,,2013-03-04 08:52:00,
2013-03-04 01:00:00,24.0,13.0,-100.00,ENE,67,0.0,2.0,61,-99.99,,,0.00,-0.200000,,2013-03-04 09:00:00,
2013-03-04 01:52:00,24.0,13.0,-100.00,ENE,67,0.0,2.0,61,-99.99,,,0.00,-0.200000,,2013-03-04 09:52:00,
2013-03-04 02:00:00,21.0,12.0,-100.00,North,0,0.0,0.0,67,-99.99,,,-99.99,-0.200000,,2013-03-04 10:00:00,
2013-03-04 03:00:00,19.0,12.0,-100.00,North,0,0.0,1.0,73,-99.99,,,0.00,-0.200000,,2013-03-04 11:00:00,
2013-03-04 03:52:00,19.0,12.0,-100.00,North,0,0.0,1.0,73,-99.99,,,0.00,-0.200000,,2013-03-04 11:52:00,
2013-03-04 04:00:00,18.0,13.0,-100.00,North,0,0.0,0.0,79,-99.99,,,-99.99,-0.200000,,2013-03-04 12:00:00,
2013-03-04 04:53:00,18.0,13.0,-100.00,North,0,0.0,0.0,79,-99.99,,,-99.99,-0.200000,,2013-03-04 12:53:00,
2013-03-04 05:00:00,20.0,14.0,-100.00,North,0,0.0,0.0,77,-99.99,,,0.00,-0.200000,,2013-03-04 13:00:00,
2013-03-04 05:52:00,20.0,14.0,-100.00,North,0,0.0,0.0,77,-99.99,,,0.00,-0.200000,,2013-03-04 13:52:00,
2013-03-04 06:00:00,18.0,10.0,-100.00,North,0,0.0,1.0,72,-99.99,,,0.00,-0.200000,,2013-03-04 14:00:00,
2013-03-04 06:52:00,18.0,10.0,-100.00,North,0,0.0,1.0,72,-99.99,,,0.00,-0.200000,,2013-03-04 14:52:00,
2013-03-04 07:00:00,19.0,13.0,-100.00,North,0,0.0,1.0,76,-99.99,,,-99.99,8.100000,,2013-03-04 15:00:00,
2013-03-04 07:52:00,19.0,13.0,-100.00,North,0,0.0,1.0,76,-99.99,,,-99.99,8.100000,,2013-03-04 15:52:00,
2013-03-04 08:00:00,28.0,16.0,-100.00,North,0,0.0,1.0,58,-99.99,,,0.00,90.300003,,2013-03-04 16:00:00,
2013-03-04 08:52:00,28.0,16.0,-100.00,North,0,0.0,1.0,58,-99.99,,,0.00,90.300003,,2013-03-04 16:52:00,
2013-03-04 09:00:00,34.0,13.0,-100.00,WSW,254,1.0,2.0,41,-99.99,,,-99.99,262.600006,,2013-03-04 17:00:00,
2013-03-04 09:52:00,34.0,13.0,-100.00,WSW,254,1.0,2.0,41,-99.99,,,-99.99,262.600006,,2013-03-04 17:52:00,
2013-03-04 10:00:00,36.0,13.0,-100.00,West,263,1.0,3.0,39,-99.99,,,0.00,418.700012,,2013-03-04 18:00:00,
2013-03-04 10:52:00,36.0,13.0,-100.00,West,263,1.0,3.0,39,-99.99,,,0.00,418.700012,,2013-03-04 18:52:00,
2013-03-04 11:00:00,38.0,16.0,-100.00,SE,130,2.0,3.0,40,-99.99,,,0.00,475.799988,,2013-03-04 19:00:00,
2013-03-04 11:52:00,38.0,16.0,-100.00,SE,130,2.0,3.0,40,-99.99,,,0.00,475.799988,,2013-03-04 19:52:00,
2013-03-04 12:00:00,39.0,20.0,-100.00,WSW,241,2.0,3.0,45,-99.99,,,0.00,614.700012,,2013-03-04 20:00:00,
2013-03-04 12:52:00,39.0,20.0,-100.00,WSW,241,2.0,3.0,45,-99.99,,,0.00,614.700012,,2013-03-04 20:52:00,
2013-03-04 13:00:00,41.0,23.0,-100.00,South,187,2.0,4.0,48,-99.99,,,-99.99,658.700012,,2013-03-04 21:00:00,
2013-03-04 13:52:00,41.0,23.0,-100.00,South,187,2.0,4.0,48,-99.99,,,-99.99,658.700012,,2013-03-04 21:52:00,
2013-03-04 14:00:00,42.0,26.0,-100.00,West,259,2.0,4.0,53,-99.99,,,0.00,245.100006,,2013-03-04 22:00:00,
2013-03-04 14:52:00,42.0,26.0,-100.00,West,259,2.0,4.0,53,-99.99,,,0.00,245.100006,,2013-03-04 22:52:00,
2013-03-04 15:00:00,44.0,24.0,-100.00,WSW,249,2.0,4.0,46,-99.99,,,0.00,448.600006,,2013-03-04 23:00:00,
2013-03-04 15:52:00,44.0,24.0,-100.00,WSW,249,2.0,4.0,46,-99.99,,,0.00,448.600006,,2013-03-04 23:52:00,
2013-03-04 16:00:00,46.0,24.0,-100.00,SW,234,2.0,3.0,42,-99.99,,,0.00,295.600006,,2013-03-05 00:00:00,
2013-03-04 16:52:00,46.0,24.0,-100.00,SW,234,2.0,3.0,42,-99.99,,,0.00,295.600006,,2013-03-05 00:52:00,
2013-03-04 17:00:00,44.0,23.0,-100.00,WNW,296,2.0,3.0,44,-99.99,,,0.00,195.000000,,2013-03-05 01:00:00,
2013-03-04 17:52:00,44.0,23.0,-100.00,WNW,296,2.0,3.0,44,-99.99,,,0.00,195.000000,,2013-03-05 01:52:00,
2013-03-04 18:00:00,39.0,24.0,-100.00,NW,311,1.0,2.0,54,-99.99,,,-99.99,35.400002,,2013-03-05 02:00:00,
2013-03-04 18:52:00,39.0,24.0,-100.00,NW,311,1.0,2.0,54,-99.99,,,-99.99,35.400002,,2013-03-05 02:52:00,
2013-03-04 19:00:00,36.0,27.0,-100.00,NNW,330,0.0,0.0,69,-99.99,,,0.00,0.200000,,2013-03-05 03:00:00,
2013-03-04 19:52:00,36.0,27.0,-100.00,NNW,330,0.0,0.0,69,-99.99,,,0.00,0.200000,,2013-03-05 03:52:00,
2013-03-04 20:00:00,33.0,26.0,-100.00,North,350,0.0,1.0,75,-99.99,,,0.00,-0.200000,,2013-03-05 04:00:00,
2013-03-04 20:52:00,33.0,26.0,-100.00,North,350,0.0,1.0,75,-99.99,,,0.00,-0.200000,,2013-03-05 04:52:00,
2013-03-04 22:00:00,37.0,30.0,-100.00,SW,231,1.0,3.0,73,-99.99,,,0.00,-0.200000,,2013-03-05 06:00:00,
2013-03-04 22:52:00,37.0,30.0,-100.00,SW,231,1.0,3.0,73,-99.99,,,0.00,-0.200000,,2013-03-05 06:52:00,
2013-03-04 23:00:00,35.0,28.0,-100.00,West,265,1.0,3.0,76,-99.99,,,0.00,-0.200000,,2013-03-05 07:00:00,
2013-03-04 23:52:00,35.0,28.0,-100.00,West,265,1.0,3.0,76,-99.99,,,0.00,-0.200000,,2013-03-05 07:52:00,